KZR345 UATE-UBBB
Flight info
| Callsign | KZR345 |
|---|---|
| Flight time | N/A |
| Altitude | 36000 |
| Route | GASBI1K GASBI/N0455F360 N60 ROPKA |
| Aircraft | A20N/M-SDE2E3FGHIRWXY/LB1 |
Departure
| Time | 2026-05-05 16:29 |
|---|---|
| Airport | Aktau International Airport (UATE) |
Arrival
| Time | N/A |
|---|---|
| Airport | Heydar Aliyev International Airport (UBBB) |
| Time | Latitude | Longitude | Altitude | Speed | Heading |
|---|---|---|---|---|---|
| 2026-05-05 15:54 | 43.85672 | 51.08885 | 73 ft | 0 kts | 211° |
| 2026-05-05 16:18 | 43.85689 | 51.08899 | 70 ft | 2 kts | 211° |
| 2026-05-05 16:18 | 43.85703 | 51.08911 | 70 ft | 2 kts | 212° |
| 2026-05-05 16:18 | 43.85731 | 51.08936 | 65 ft | 2 kts | 182° |
| 2026-05-05 16:19 | 43.85745 | 51.08926 | 63 ft | 2 kts | 125° |
| 2026-05-05 16:19 | 43.85754 | 51.08906 | 65 ft | 2 kts | 119° |
| 2026-05-05 16:19 | 43.85759 | 51.08892 | 67 ft | 0 kts | 121° |
| 2026-05-05 16:23 | 43.85743 | 51.08929 | 65 ft | 6 kts | 122° |
| 2026-05-05 16:23 | 43.85716 | 51.08990 | 73 ft | 5 kts | 122° |
| 2026-05-05 16:23 | 43.85649 | 51.09134 | 65 ft | 13 kts | 124° |
| 2026-05-05 16:24 | 43.85602 | 51.09236 | 65 ft | 10 kts | 109° |
| 2026-05-05 16:24 | 43.85644 | 51.09297 | 70 ft | 10 kts | 31° |
| 2026-05-05 16:24 | 43.85796 | 51.09430 | 75 ft | 14 kts | 38° |
| 2026-05-05 16:25 | 43.85795 | 51.09537 | 67 ft | 14 kts | 122° |
| 2026-05-05 16:25 | 43.85671 | 51.09811 | 75 ft | 20 kts | 123° |
| 2026-05-05 16:25 | 43.85589 | 51.09990 | 72 ft | 23 kts | 120° |
| 2026-05-05 16:26 | 43.85398 | 51.10405 | 72 ft | 21 kts | 122° |
| 2026-05-05 16:26 | 43.85286 | 51.10572 | 66 ft | 10 kts | 159° |
| 2026-05-05 16:27 | 43.85257 | 51.10636 | 73 ft | 7 kts | 46° |
| 2026-05-05 16:27 | 43.85296 | 51.10633 | 67 ft | 3 kts | 304° |
| 2026-05-05 16:27 | 43.85307 | 51.10601 | 76 ft | 5 kts | 300° |
| 2026-05-05 16:27 | 43.85310 | 51.10595 | 76 ft | 0 kts | 300° |
| 2026-05-05 16:28 | 43.85424 | 51.10348 | 66 ft | 66 kts | 303° |
| 2026-05-05 16:29 | 43.85781 | 51.09577 | 73 ft | 123 kts | 302° |
| 2026-05-05 16:29 | 43.86317 | 51.08407 | 214 ft | 154 kts | 302° |
| 2026-05-05 16:29 | 43.86665 | 51.07060 | 855 ft | 150 kts | 270° |
| 2026-05-05 16:29 | 43.86329 | 51.05714 | 1491 ft | 151 kts | 233° |
| 2026-05-05 16:30 | 43.85576 | 51.05005 | 2026 ft | 155 kts | 203° |
| 2026-05-05 16:30 | 43.84538 | 51.04541 | 2603 ft | 158 kts | 201° |
| 2026-05-05 16:30 | 43.83480 | 51.04100 | 3200 ft | 162 kts | 200° |
| 2026-05-05 16:30 | 43.82345 | 51.03629 | 3711 ft | 180 kts | 200° |
| 2026-05-05 16:31 | 43.81082 | 51.03101 | 4257 ft | 199 kts | 199° |
| 2026-05-05 16:31 | 43.79678 | 51.02515 | 4749 ft | 222 kts | 199° |
| 2026-05-05 16:31 | 43.78128 | 51.01868 | 5298 ft | 244 kts | 199° |
| 2026-05-05 16:31 | 43.76425 | 51.01158 | 5877 ft | 265 kts | 199° |
| 2026-05-05 16:32 | 43.74625 | 51.00411 | 6703 ft | 272 kts | 199° |
| 2026-05-05 16:32 | 43.72805 | 50.99658 | 7723 ft | 272 kts | 199° |
| 2026-05-05 16:32 | 43.70984 | 50.98902 | 8725 ft | 274 kts | 199° |
| 2026-05-05 16:32 | 43.69146 | 50.98138 | 9743 ft | 276 kts | 199° |
| 2026-05-05 16:33 | 43.67295 | 50.97368 | 10532 ft | 285 kts | 199° |
| 2026-05-05 16:33 | 43.65313 | 50.96539 | 10889 ft | 309 kts | 199° |
| 2026-05-05 16:33 | 43.63215 | 50.95663 | 11290 ft | 327 kts | 199° |
| 2026-05-05 16:33 | 43.61024 | 50.94754 | 12135 ft | 330 kts | 199° |
| 2026-05-05 16:34 | 43.58800 | 50.93833 | 13002 ft | 334 kts | 199° |
| 2026-05-05 16:34 | 43.56566 | 50.92909 | 13874 ft | 337 kts | 199° |
| 2026-05-05 16:34 | 43.54340 | 50.91988 | 14653 ft | 339 kts | 199° |
| 2026-05-05 16:34 | 43.52039 | 50.91036 | 15468 ft | 341 kts | 199° |
| 2026-05-05 16:35 | 43.49757 | 50.90093 | 16264 ft | 343 kts | 199° |
| 2026-05-05 16:35 | 43.47487 | 50.89154 | 17023 ft | 346 kts | 200° |
| 2026-05-05 16:35 | 43.45169 | 50.88196 | 17794 ft | 348 kts | 200° |
| 2026-05-05 16:35 | 43.42844 | 50.87236 | 18512 ft | 351 kts | 200° |
| 2026-05-05 16:36 | 43.40494 | 50.86266 | 19161 ft | 353 kts | 200° |
| 2026-05-05 16:36 | 43.38132 | 50.85293 | 19815 ft | 355 kts | 200° |
| 2026-05-05 16:36 | 43.35755 | 50.84315 | 20463 ft | 358 kts | 200° |
| 2026-05-05 16:36 | 43.33359 | 50.83330 | 21094 ft | 361 kts | 201° |
| 2026-05-05 16:37 | 43.30946 | 50.82338 | 21734 ft | 363 kts | 201° |
| 2026-05-05 16:37 | 43.28514 | 50.81339 | 22355 ft | 366 kts | 201° |
| 2026-05-05 16:37 | 43.26059 | 50.80332 | 22972 ft | 369 kts | 201° |
| 2026-05-05 16:37 | 43.23625 | 50.79334 | 23565 ft | 371 kts | 201° |
| 2026-05-05 16:38 | 43.21135 | 50.78313 | 24074 ft | 374 kts | 201° |
| 2026-05-05 16:38 | 43.18631 | 50.77288 | 24557 ft | 377 kts | 201° |
| 2026-05-05 16:38 | 43.16107 | 50.76255 | 25038 ft | 380 kts | 201° |
| 2026-05-05 16:38 | 43.13559 | 50.75213 | 25517 ft | 383 kts | 201° |
| 2026-05-05 16:39 | 43.11005 | 50.74170 | 25976 ft | 385 kts | 201° |
| 2026-05-05 16:39 | 43.08419 | 50.73115 | 26419 ft | 388 kts | 201° |
| 2026-05-05 16:39 | 43.05818 | 50.72055 | 26854 ft | 391 kts | 201° |
| 2026-05-05 16:39 | 43.03200 | 50.70989 | 27290 ft | 394 kts | 201° |
| 2026-05-05 16:40 | 43.00559 | 50.69914 | 27713 ft | 396 kts | 201° |
| 2026-05-05 16:40 | 42.97947 | 50.68852 | 28095 ft | 400 kts | 200° |
| 2026-05-05 16:40 | 42.95273 | 50.67766 | 28487 ft | 402 kts | 200° |
| 2026-05-05 16:40 | 42.92582 | 50.66674 | 28881 ft | 404 kts | 200° |
| 2026-05-05 16:41 | 42.89875 | 50.65576 | 29251 ft | 407 kts | 200° |
| 2026-05-05 16:41 | 42.87151 | 50.64472 | 29598 ft | 410 kts | 200° |
| 2026-05-05 16:41 | 42.84409 | 50.63361 | 29963 ft | 412 kts | 200° |
| 2026-05-05 16:41 | 42.81654 | 50.62247 | 30285 ft | 414 kts | 200° |
| 2026-05-05 16:42 | 42.78880 | 50.61125 | 30628 ft | 416 kts | 200° |
| 2026-05-05 16:42 | 42.76100 | 50.60003 | 30945 ft | 418 kts | 200° |
| 2026-05-05 16:42 | 42.73309 | 50.58876 | 31305 ft | 418 kts | 200° |
| 2026-05-05 16:42 | 42.70523 | 50.57754 | 31753 ft | 417 kts | 200° |
| 2026-05-05 16:43 | 42.67745 | 50.56636 | 32205 ft | 415 kts | 200° |
| 2026-05-05 16:43 | 42.64979 | 50.55523 | 32627 ft | 414 kts | 200° |
| 2026-05-05 16:43 | 42.62212 | 50.54411 | 33038 ft | 413 kts | 200° |
| 2026-05-05 16:43 | 42.59460 | 50.53306 | 33465 ft | 411 kts | 200° |
| 2026-05-05 16:44 | 42.56726 | 50.52209 | 33873 ft | 410 kts | 199° |
| 2026-05-05 16:44 | 42.54019 | 50.51124 | 34201 ft | 409 kts | 200° |
| 2026-05-05 16:44 | 42.51291 | 50.50032 | 34468 ft | 410 kts | 199° |
| 2026-05-05 16:44 | 42.48557 | 50.48938 | 34734 ft | 410 kts | 199° |
| 2026-05-05 16:45 | 42.45821 | 50.47844 | 34998 ft | 410 kts | 199° |
| 2026-05-05 16:45 | 42.43041 | 50.46899 | 35241 ft | 413 kts | 194° |
| 2026-05-05 16:45 | 42.40196 | 50.46296 | 35489 ft | 415 kts | 192° |
| 2026-05-05 16:45 | 42.37334 | 50.45774 | 35733 ft | 415 kts | 192° |
| 2026-05-05 16:46 | 42.34471 | 50.45245 | 35946 ft | 415 kts | 192° |
| 2026-05-05 16:46 | 42.32577 | 50.44893 | 35972 ft | 415 kts | 192° |
| 2026-05-05 16:46 | 42.25900 | 50.43644 | 35973 ft | 413 kts | 192° |
| 2026-05-05 16:47 | 42.20238 | 50.42585 | 35975 ft | 413 kts | 192° |
| 2026-05-05 16:47 | 42.14537 | 50.41521 | 35974 ft | 413 kts | 192° |
| 2026-05-05 16:48 | 42.08850 | 50.40461 | 35973 ft | 413 kts | 192° |
| 2026-05-05 16:48 | 42.03156 | 50.39402 | 35979 ft | 413 kts | 192° |
| 2026-05-05 16:49 | 41.97465 | 50.38346 | 35982 ft | 413 kts | 192° |